sensor_id;sensor_type;location;lat;lon;timestamp;pressure;altitude;pressure_sealevel;temperature;humidity
51239;BME280;38154;47.548;18.828;2023-06-14T00:00:19;98474.88;;;12.69;99.47
51239;BME280;38154;47.548;18.828;2023-06-14T00:02:45;98472.03;;;12.89;97.63
51239;BME280;38154;47.548;18.828;2023-06-14T00:05:11;98467.44;;;13.03;96.01
51239;BME280;38154;47.548;18.828;2023-06-14T00:07:40;98471.69;;;13.12;95.24
51239;BME280;38154;47.548;18.828;2023-06-14T00:10:08;98461.28;;;13.09;95.12
51239;BME280;38154;47.548;18.828;2023-06-14T00:12:34;98472.59;;;13.09;95.78
51239;BME280;38154;47.548;18.828;2023-06-14T00:15:00;98474.44;;;13.03;96.13
51239;BME280;38154;47.548;18.828;2023-06-14T00:17:28;98472.06;;;12.84;98.74
51239;BME280;38154;47.548;18.828;2023-06-14T00:19:57;98464.44;;;12.66;100.00
51239;BME280;38154;47.548;18.828;2023-06-14T00:22:23;98469.06;;;12.43;100.00
51239;BME280;38154;47.548;18.828;2023-06-14T00:24:54;98475.31;;;12.29;100.00
51239;BME280;38154;47.548;18.828;2023-06-14T00:27:19;98478.13;;;12.12;100.00
51239;BME280;38154;47.548;18.828;2023-06-14T00:29:45;98476.50;;;11.97;100.00
51239;BME280;38154;47.548;18.828;2023-06-14T00:32:11;98478.28;;;11.88;100.00
51239;BME280;38154;47.548;18.828;2023-06-14T00:34:36;98475.81;;;11.72;100.00
51239;BME280;38154;47.548;18.828;2023-06-14T00:37:02;98478.44;;;11.68;100.00
51239;BME280;38154;47.548;18.828;2023-06-14T00:39:28;98469.78;;;11.66;100.00
51239;BME280;38154;47.548;18.828;2023-06-14T00:41:53;98472.41;;;11.62;100.00
51239;BME280;38154;47.548;18.828;2023-06-14T00:44:19;98477.63;;;11.65;100.00
51239;BME280;38154;47.548;18.828;2023-06-14T00:46:45;98476.81;;;11.54;100.00
51239;BME280;38154;47.548;18.828;2023-06-14T00:49:11;98479.47;;;11.47;100.00
51239;BME280;38154;47.548;18.828;2023-06-14T00:51:37;98483.03;;;11.37;100.00
51239;BME280;38154;47.548;18.828;2023-06-14T00:54:04;98489.19;;;11.24;100.00
51239;BME280;38154;47.548;18.828;2023-06-14T00:56:30;98481.47;;;11.08;100.00
51239;BME280;38154;47.548;18.828;2023-06-14T00:58:56;98486.72;;;10.98;100.00
51239;BME280;38154;47.548;18.828;2023-06-14T01:01:23;98486.78;;;10.93;100.00
51239;BME280;38154;47.548;18.828;2023-06-14T01:03:49;98484.09;;;11.04;100.00
51239;BME280;38154;47.548;18.828;2023-06-14T01:09:03;98480.56;;;11.11;100.00
51239;BME280;38154;47.548;18.828;2023-06-14T01:11:32;98474.47;;;11.13;100.00
51239;BME280;38154;47.548;18.828;2023-06-14T01:13:59;98476.22;;;11.16;100.00
51239;BME280;38154;47.548;18.828;2023-06-14T01:16:27;98468.37;;;11.16;100.00
51239;BME280;38154;47.548;18.828;2023-06-14T01:18:53;98467.47;;;11.22;100.00
51239;BME280;38154;47.548;18.828;2023-06-14T01:21:25;98465.59;;;11.39;100.00
51239;BME280;38154;47.548;18.828;2023-06-14T01:23:51;98460.22;;;11.61;100.00
51239;BME280;38154;47.548;18.828;2023-06-14T01:26:21;98461.84;;;11.77;100.00
51239;BME280;38154;47.548;18.828;2023-06-14T01:28:48;98464.25;;;12.03;100.00
51239;BME280;38154;47.548;18.828;2023-06-14T01:31:19;98463.97;;;12.28;100.00
51239;BME280;38154;47.548;18.828;2023-06-14T01:33:47;98466.47;;;12.42;100.00
51239;BME280;38154;47.548;18.828;2023-06-14T01:36:13;98472.56;;;12.41;100.00
51239;BME280;38154;47.548;18.828;2023-06-14T01:38:40;98469.13;;;12.37;100.00
51239;BME280;38154;47.548;18.828;2023-06-14T01:41:06;98472.38;;;12.56;100.00
51239;BME280;38154;47.548;18.828;2023-06-14T01:43:32;98475.00;;;12.58;100.00
51239;BME280;38154;47.548;18.828;2023-06-14T01:45:59;98475.13;;;12.47;100.00
51239;BME280;38154;47.548;18.828;2023-06-14T01:48:25;98476.94;;;12.42;100.00
51239;BME280;38154;47.548;18.828;2023-06-14T01:50:51;98469.91;;;12.47;100.00
51239;BME280;38154;47.548;18.828;2023-06-14T01:53:17;98468.16;;;12.46;100.00
51239;BME280;38154;47.548;18.828;2023-06-14T01:55:43;98470.56;;;12.65;100.00
51239;BME280;38154;47.548;18.828;2023-06-14T01:58:09;98472.97;;;12.81;100.00
51239;BME280;38154;47.548;18.828;2023-06-14T02:00:35;98468.53;;;12.87;100.00
51239;BME280;38154;47.548;18.828;2023-06-14T02:03:01;98473.69;;;12.94;100.00
51239;BME280;38154;47.548;18.828;2023-06-14T02:05:29;98469.31;;;12.93;100.00
51239;BME280;38154;47.548;18.828;2023-06-14T02:07:55;98478.06;;;12.92;100.00
51239;BME280;38154;47.548;18.828;2023-06-14T02:10:21;98475.50;;;12.88;100.00
51239;BME280;38154;47.548;18.828;2023-06-14T02:12:46;98480.75;;;12.88;100.00
51239;BME280;38154;47.548;18.828;2023-06-14T02:15:12;98482.41;;;12.92;100.00
51239;BME280;38154;47.548;18.828;2023-06-14T02:17:45;98475.59;;;12.80;100.00
51239;BME280;38154;47.548;18.828;2023-06-14T02:20:12;98489.53;;;12.82;100.00
51239;BME280;38154;47.548;18.828;2023-06-14T02:22:38;98484.34;;;12.79;100.00
51239;BME280;38154;47.548;18.828;2023-06-14T02:25:04;98487.00;;;12.74;100.00
51239;BME280;38154;47.548;18.828;2023-06-14T02:27:30;98484.47;;;12.68;100.00
51239;BME280;38154;47.548;18.828;2023-06-14T02:29:55;98482.66;;;12.73;100.00
51239;BME280;38154;47.548;18.828;2023-06-14T02:32:21;98480.94;;;12.72;100.00
51239;BME280;38154;47.548;18.828;2023-06-14T02:34:47;98477.41;;;12.75;100.00
51239;BME280;38154;47.548;18.828;2023-06-14T02:37:15;98484.41;;;12.74;100.00
51239;BME280;38154;47.548;18.828;2023-06-14T02:39:41;98488.00;;;12.66;100.00
51239;BME280;38154;47.548;18.828;2023-06-14T02:42:07;98481.03;;;12.61;100.00
51239;BME280;38154;47.548;18.828;2023-06-14T02:44:32;98485.44;;;12.59;100.00
51239;BME280;38154;47.548;18.828;2023-06-14T02:46:58;98482.00;;;12.54;100.00
51239;BME280;38154;47.548;18.828;2023-06-14T02:49:26;98471.59;;;12.51;100.00
51239;BME280;38154;47.548;18.828;2023-06-14T02:51:51;98478.53;;;12.54;100.00
51239;BME280;38154;47.548;18.828;2023-06-14T02:54:17;98483.69;;;12.58;100.00
51239;BME280;38154;47.548;18.828;2023-06-14T02:56:43;98476.75;;;12.56;100.00
51239;BME280;38154;47.548;18.828;2023-06-14T02:59:09;98474.91;;;12.66;100.00
51239;BME280;38154;47.548;18.828;2023-06-14T03:01:34;98474.97;;;12.61;100.00
51239;BME280;38154;47.548;18.828;2023-06-14T03:04:01;98474.00;;;12.67;100.00
51239;BME280;38154;47.548;18.828;2023-06-14T03:06:29;98474.94;;;12.64;100.00
51239;BME280;38154;47.548;18.828;2023-06-14T03:08:56;98466.09;;;12.73;100.00
51239;BME280;38154;47.548;18.828;2023-06-14T03:11:25;98473.06;;;12.74;100.00
51239;BME280;38154;47.548;18.828;2023-06-14T03:13:51;98481.81;;;12.70;100.00
51239;BME280;38154;47.548;18.828;2023-06-14T03:16:17;98478.34;;;12.69;100.00
51239;BME280;38154;47.548;18.828;2023-06-14T03:18:50;98481.81;;;12.70;100.00
51239;BME280;38154;47.548;18.828;2023-06-14T03:21:17;98472.19;;;12.72;100.00
51239;BME280;38154;47.548;18.828;2023-06-14T03:23:43;98479.06;;;12.82;100.00
51239;BME280;38154;47.548;18.828;2023-06-14T03:26:09;98479.06;;;12.82;100.00
51239;BME280;38154;47.548;18.828;2023-06-14T03:28:34;98483.53;;;12.75;100.00
51239;BME280;38154;47.548;18.828;2023-06-14T03:31:00;98487.88;;;12.75;100.00
51239;BME280;38154;47.548;18.828;2023-06-14T03:33:26;98491.41;;;12.71;100.00
51239;BME280;38154;47.548;18.828;2023-06-14T03:35:52;98487.81;;;12.79;100.00
51239;BME280;38154;47.548;18.828;2023-06-14T03:38:18;98493.84;;;12.85;100.00
51239;BME280;38154;47.548;18.828;2023-06-14T03:40:44;98484.16;;;12.93;100.00
51239;BME280;38154;47.548;18.828;2023-06-14T03:43:10;98486.75;;;12.94;100.00
51239;BME280;38154;47.548;18.828;2023-06-14T03:45:36;98498.19;;;12.87;100.00
51239;BME280;38154;47.548;18.828;2023-06-14T03:48:02;98489.38;;;12.94;100.00
51239;BME280;38154;47.548;18.828;2023-06-14T03:50:28;98506.87;;;12.91;100.00
51239;BME280;38154;47.548;18.828;2023-06-14T03:52:53;98499.78;;;13.01;100.00
51239;BME280;38154;47.548;18.828;2023-06-14T03:55:19;98499.87;;;12.93;100.00
51239;BME280;38154;47.548;18.828;2023-06-14T03:57:45;98492.81;;;12.98;100.00
51239;BME280;38154;47.548;18.828;2023-06-14T04:00:11;98511.09;;;13.03;100.00
51239;BME280;38154;47.548;18.828;2023-06-14T04:02:38;98509.22;;;13.12;100.00
51239;BME280;38154;47.548;18.828;2023-06-14T04:05:03;98515.97;;;13.29;100.00
51239;BME280;38154;47.548;18.828;2023-06-14T04:07:30;98517.50;;;13.45;100.00
51239;BME280;38154;47.548;18.828;2023-06-14T04:09:56;98513.69;;;13.69;100.00
51239;BME280;38154;47.548;18.828;2023-06-14T04:12:22;98511.41;;;14.01;100.00
51239;BME280;38154;47.548;18.828;2023-06-14T04:14:47;98514.03;;;14.51;100.00
51239;BME280;38154;47.548;18.828;2023-06-14T04:17:13;98514.63;;;14.68;100.00
51239;BME280;38154;47.548;18.828;2023-06-14T04:19:39;98523.00;;;14.86;100.00
51239;BME280;38154;47.548;18.828;2023-06-14T04:22:05;98519.00;;;14.66;100.00
51239;BME280;38154;47.548;18.828;2023-06-14T04:24:31;98520.50;;;15.21;100.00
51239;BME280;38154;47.548;18.828;2023-06-14T04:27:00;98511.28;;;15.82;100.00
51239;BME280;38154;47.548;18.828;2023-06-14T04:29:26;98525.28;;;15.84;100.00
51239;BME280;38154;47.548;18.828;2023-06-14T04:31:53;98532.91;;;15.55;100.00
51239;BME280;38154;47.548;18.828;2023-06-14T04:34:20;98524.25;;;15.50;100.00
51239;BME280;38154;47.548;18.828;2023-06-14T04:36:47;98536.94;;;15.70;100.00
51239;BME280;38154;47.548;18.828;2023-06-14T04:39:18;98539.94;;;15.94;100.00
51239;BME280;38154;47.548;18.828;2023-06-14T04:41:44;98541.56;;;15.98;100.00
51239;BME280;38154;47.548;18.828;2023-06-14T04:44:10;98546.56;;;15.70;100.00
51239;BME280;38154;47.548;18.828;2023-06-14T04:46:38;98542.09;;;15.36;100.00
51239;BME280;38154;47.548;18.828;2023-06-14T04:49:17;98543.16;;;15.27;100.00
51239;BME280;38154;47.548;18.828;2023-06-14T04:51:43;98548.38;;;15.29;100.00
51239;BME280;38154;47.548;18.828;2023-06-14T04:54:09;98544.75;;;15.34;100.00
51239;BME280;38154;47.548;18.828;2023-06-14T04:56:39;98545.69;;;15.32;100.00
51239;BME280;38154;47.548;18.828;2023-06-14T04:59:05;98545.59;;;15.35;100.00
51239;BME280;38154;47.548;18.828;2023-06-14T05:01:31;98542.56;;;15.53;100.00
51239;BME280;38154;47.548;18.828;2023-06-14T05:03:57;98548.75;;;15.91;100.00
51239;BME280;38154;47.548;18.828;2023-06-14T05:06:23;98547.13;;;15.86;100.00
51239;BME280;38154;47.548;18.828;2023-06-14T05:08:49;98550.69;;;15.83;100.00
51239;BME280;38154;47.548;18.828;2023-06-14T05:11:15;98543.28;;;16.01;100.00
51239;BME280;38154;47.548;18.828;2023-06-14T05:13:42;98543.75;;;16.51;98.40
51239;BME280;38154;47.548;18.828;2023-06-14T05:16:09;98550.97;;;16.76;95.50
51239;BME280;38154;47.548;18.828;2023-06-14T05:18:34;98557.53;;;16.94;94.01
51239;BME280;38154;47.548;18.828;2023-06-14T05:21:01;98556.72;;;16.92;95.61
51239;BME280;38154;47.548;18.828;2023-06-14T05:23:26;98560.53;;;17.13;92.55
51239;BME280;38154;47.548;18.828;2023-06-14T05:25:52;98555.34;;;17.10;93.99
51239;BME280;38154;47.548;18.828;2023-06-14T05:28:18;98562.16;;;17.17;92.93
51239;BME280;38154;47.548;18.828;2023-06-14T05:30:44;98562.25;;;17.43;92.07
51239;BME280;38154;47.548;18.828;2023-06-14T05:33:09;98559.22;;;17.56;90.12
51239;BME280;38154;47.548;18.828;2023-06-14T05:35:35;98558.56;;;17.49;89.13
51239;BME280;38154;47.548;18.828;2023-06-14T05:38:01;98566.66;;;17.43;92.28
51239;BME280;38154;47.548;18.828;2023-06-14T05:40:26;98575.87;;;17.58;87.33
51239;BME280;38154;47.548;18.828;2023-06-14T05:42:52;98565.84;;;17.99;90.19
51239;BME280;38154;47.548;18.828;2023-06-14T05:45:18;98568.66;;;18.46;85.03
51239;BME280;38154;47.548;18.828;2023-06-14T05:47:44;98571.56;;;18.65;82.75
51239;BME280;38154;47.548;18.828;2023-06-14T05:50:09;98567.16;;;19.15;80.14
51239;BME280;38154;47.548;18.828;2023-06-14T05:52:35;98571.00;;;19.77;76.28
51239;BME280;38154;47.548;18.828;2023-06-14T05:55:02;98577.84;;;20.27;72.36
51239;BME280;38154;47.548;18.828;2023-06-14T05:57:28;98578.41;;;20.55;68.47
51239;BME280;38154;47.548;18.828;2023-06-14T05:59:54;98568.37;;;20.21;70.46
51239;BME280;38154;47.548;18.828;2023-06-14T06:02:20;98580.50;;;20.05;71.62
51239;BME280;38154;47.548;18.828;2023-06-14T06:04:45;98581.41;;;20.04;71.78
51239;BME280;38154;47.548;18.828;2023-06-14T06:07:11;98578.09;;;19.76;72.46
51239;BME280;38154;47.548;18.828;2023-06-14T06:09:37;98582.75;;;19.46;73.96
51239;BME280;38154;47.548;18.828;2023-06-14T06:12:02;98577.59;;;19.19;76.99
51239;BME280;38154;47.548;18.828;2023-06-14T06:14:28;98578.34;;;19.92;75.19
51239;BME280;38154;47.548;18.828;2023-06-14T06:16:54;98581.19;;;20.73;70.84
51239;BME280;38154;47.548;18.828;2023-06-14T06:19:20;98592.19;;;21.44;65.59
51239;BME280;38154;47.548;18.828;2023-06-14T06:21:45;98589.16;;;23.65;57.85
51239;BME280;38154;47.548;18.828;2023-06-14T06:24:11;98597.25;;;24.88;50.92
51239;BME280;38154;47.548;18.828;2023-06-14T06:26:37;98596.50;;;26.01;47.36
51239;BME280;38154;47.548;18.828;2023-06-14T06:29:04;98600.19;;;25.28;46.64
51239;BME280;38154;47.548;18.828;2023-06-14T06:31:30;98590.91;;;23.82;50.37
51239;BME280;38154;47.548;18.828;2023-06-14T06:33:55;98589.56;;;23.57;52.66
51239;BME280;38154;47.548;18.828;2023-06-14T06:36:21;98592.69;;;22.64;54.34
51239;BME280;38154;47.548;18.828;2023-06-14T06:38:47;98593.09;;;23.58;52.69
51239;BME280;38154;47.548;18.828;2023-06-14T12:29:12;98663.19;;;26.44;36.59
51239;BME280;38154;47.548;18.828;2023-06-14T12:31:38;98658.81;;;26.43;37.14
51239;BME280;38154;47.548;18.828;2023-06-14T12:34:04;98658.16;;;26.67;36.04
51239;BME280;38154;47.548;18.828;2023-06-14T12:36:30;98649.03;;;26.56;35.55
51239;BME280;38154;47.548;18.828;2023-06-14T12:38:57;98649.28;;;26.66;36.59
51239;BME280;38154;47.548;18.828;2023-06-14T12:41:23;98654.13;;;26.59;33.48
51239;BME280;38154;47.548;18.828;2023-06-14T12:43:50;98650.34;;;26.63;36.47
51239;BME280;38154;47.548;18.828;2023-06-14T12:46:16;98649.28;;;26.66;37.29
51239;BME280;38154;47.548;18.828;2023-06-14T12:48:42;98650.03;;;26.68;34.33
51239;BME280;38154;47.548;18.828;2023-06-14T12:51:08;98655.34;;;26.41;34.21
51239;BME280;38154;47.548;18.828;2023-06-14T12:53:34;98651.84;;;26.40;33.91
51239;BME280;38154;47.548;18.828;2023-06-14T12:55:59;98642.44;;;26.47;34.62
51239;BME280;38154;47.548;18.828;2023-06-14T12:58:25;98639.00;;;26.45;35.60
51239;BME280;38154;47.548;18.828;2023-06-14T13:00:51;98646.78;;;26.36;35.07
51239;BME280;38154;47.548;18.828;2023-06-14T13:03:17;98632.84;;;26.18;35.70
51239;BME280;38154;47.548;18.828;2023-06-14T13:05:43;98636.94;;;25.95;36.90
51239;BME280;38154;47.548;18.828;2023-06-14T13:08:09;98640.78;;;25.62;38.09
51239;BME280;38154;47.548;18.828;2023-06-14T13:10:35;98639.53;;;25.67;39.66
51239;BME280;38154;47.548;18.828;2023-06-14T13:13:01;98634.97;;;25.55;40.25
51239;BME280;38154;47.548;18.828;2023-06-14T13:15:28;98629.81;;;25.52;39.00
51239;BME280;38154;47.548;18.828;2023-06-14T13:17:54;98623.75;;;24.91;40.12
51239;BME280;38154;47.548;18.828;2023-06-14T13:20:20;98628.03;;;24.93;40.52
51239;BME280;38154;47.548;18.828;2023-06-14T13:22:46;98633.03;;;24.69;40.61
51239;BME280;38154;47.548;18.828;2023-06-14T13:25:12;98630.53;;;24.66;40.08
51239;BME280;38154;47.548;18.828;2023-06-14T13:27:38;98622.81;;;24.45;40.78
51239;BME280;38154;47.548;18.828;2023-06-14T13:30:04;98627.56;;;24.40;41.86
51239;BME280;38154;47.548;18.828;2023-06-14T13:32:35;98620.41;;;24.87;39.21
51239;BME280;38154;47.548;18.828;2023-06-14T13:35:00;98626.69;;;25.31;37.93
51239;BME280;38154;47.548;18.828;2023-06-14T13:37:27;98632.69;;;25.63;36.64
51239;BME280;38154;47.548;18.828;2023-06-14T13:39:53;98626.50;;;25.63;38.64
51239;BME280;38154;47.548;18.828;2023-06-14T13:42:19;98623.22;;;25.72;37.56
51239;BME280;38154;47.548;18.828;2023-06-14T13:44:45;98619.53;;;25.74;37.27
51239;BME280;38154;47.548;18.828;2023-06-14T13:47:11;98615.41;;;25.69;38.74
51239;BME280;38154;47.548;18.828;2023-06-14T13:49:36;98619.25;;;25.79;37.89
51239;BME280;38154;47.548;18.828;2023-06-14T13:52:02;98611.13;;;25.95;37.56
51239;BME280;38154;47.548;18.828;2023-06-14T13:54:28;98607.56;;;25.80;37.35
51239;BME280;38154;47.548;18.828;2023-06-14T13:56:55;98616.78;;;25.47;36.64
51239;BME280;38154;47.548;18.828;2023-06-14T13:59:20;98611.16;;;25.37;37.50
51239;BME280;38154;47.548;18.828;2023-06-14T14:01:47;98615.72;;;25.50;37.46
51239;BME280;38154;47.548;18.828;2023-06-14T14:04:13;98603.06;;;25.39;37.62
51239;BME280;38154;47.548;18.828;2023-06-14T14:06:39;98611.78;;;25.12;37.92
51239;BME280;38154;47.548;18.828;2023-06-14T14:09:05;98607.97;;;25.02;40.67
51239;BME280;38154;47.548;18.828;2023-06-14T14:11:31;98606.81;;;25.06;39.18
51239;BME280;38154;47.548;18.828;2023-06-14T14:13:59;98611.97;;;25.09;36.83
51239;BME280;38154;47.548;18.828;2023-06-14T14:16:25;98610.94;;;24.81;38.68
51239;BME280;38154;47.548;18.828;2023-06-14T14:18:51;98609.19;;;24.66;39.60
51239;BME280;38154;47.548;18.828;2023-06-14T14:21:17;98604.75;;;24.51;38.81
51239;BME280;38154;47.548;18.828;2023-06-14T14:23:43;98610.31;;;24.32;39.83
51239;BME280;38154;47.548;18.828;2023-06-14T14:26:09;98610.44;;;24.44;41.01
51239;BME280;38154;47.548;18.828;2023-06-14T14:28:35;98611.44;;;24.74;40.28
51239;BME280;38154;47.548;18.828;2023-06-14T14:31:01;98609.03;;;24.53;39.39
51239;BME280;38154;47.548;18.828;2023-06-14T14:33:27;98603.59;;;24.24;38.49
51239;BME280;38154;47.548;18.828;2023-06-14T14:35:53;98620.53;;;24.07;39.41
51239;BME280;38154;47.548;18.828;2023-06-14T14:38:19;98613.81;;;24.32;38.93
51239;BME280;38154;47.548;18.828;2023-06-14T14:40:45;98604.00;;;24.33;39.82
51239;BME280;38154;47.548;18.828;2023-06-14T14:43:11;98618.38;;;24.14;40.12
51239;BME280;38154;47.548;18.828;2023-06-14T14:45:37;98614.50;;;23.72;40.36
51239;BME280;38154;47.548;18.828;2023-06-14T14:48:03;98615.47;;;23.87;38.34
51239;BME280;38154;47.548;18.828;2023-06-14T14:50:29;98605.06;;;23.82;40.21
51239;BME280;38154;47.548;18.828;2023-06-14T14:52:55;98607.28;;;23.74;40.25
51239;BME280;38154;47.548;18.828;2023-06-14T14:55:22;98612.44;;;23.61;41.21
51239;BME280;38154;47.548;18.828;2023-06-14T14:57:47;98608.13;;;23.59;40.63
51239;BME280;38154;47.548;18.828;2023-06-14T15:00:14;98608.34;;;23.38;38.99
51239;BME280;38154;47.548;18.828;2023-06-14T15:02:40;98606.69;;;23.20;39.84
51239;BME280;38154;47.548;18.828;2023-06-14T15:05:06;98613.72;;;23.03;39.92
51239;BME280;38154;47.548;18.828;2023-06-14T15:07:32;98602.53;;;22.96;38.34
51239;BME280;38154;47.548;18.828;2023-06-14T15:09:59;98607.06;;;22.94;39.45
51239;BME280;38154;47.548;18.828;2023-06-14T15:12:25;98619.28;;;23.16;40.59
51239;BME280;38154;47.548;18.828;2023-06-14T15:14:52;98605.41;;;23.27;40.52
51239;BME280;38154;47.548;18.828;2023-06-14T15:17:19;98600.59;;;23.33;39.88
51239;BME280;38154;47.548;18.828;2023-06-14T15:19:45;98601.09;;;23.24;40.66
51239;BME280;38154;47.548;18.828;2023-06-14T15:22:12;98607.38;;;23.39;39.46
51239;BME280;38154;47.548;18.828;2023-06-14T15:24:37;98599.16;;;23.28;41.17
51239;BME280;38154;47.548;18.828;2023-06-14T15:27:03;98600.66;;;23.16;40.35
51239;BME280;38154;47.548;18.828;2023-06-14T15:29:29;98591.25;;;23.26;38.70
51239;BME280;38154;47.548;18.828;2023-06-14T15:31:55;98596.88;;;23.20;40.20
51239;BME280;38154;47.548;18.828;2023-06-14T15:34:23;98594.88;;;23.08;41.61
51239;BME280;38154;47.548;18.828;2023-06-14T15:36:49;98588.00;;;22.86;41.20
51239;BME280;38154;47.548;18.828;2023-06-14T15:39:15;98587.94;;;22.53;40.68
51239;BME280;38154;47.548;18.828;2023-06-14T15:41:41;98584.78;;;22.45;43.06
51239;BME280;38154;47.548;18.828;2023-06-14T15:44:07;98580.50;;;22.59;39.96
51239;BME280;38154;47.548;18.828;2023-06-14T15:46:34;98585.41;;;22.50;41.01
51239;BME280;38154;47.548;18.828;2023-06-14T15:49:00;98585.59;;;22.64;40.30
51239;BME280;38154;47.548;18.828;2023-06-14T15:51:25;98588.38;;;22.78;39.82
51239;BME280;38154;47.548;18.828;2023-06-14T15:53:51;98584.47;;;22.68;40.93
51239;BME280;38154;47.548;18.828;2023-06-14T15:56:18;98590.72;;;22.85;38.15
51239;BME280;38154;47.548;18.828;2023-06-14T15:58:43;98589.47;;;22.92;38.96
51239;BME280;38154;47.548;18.828;2023-06-14T16:01:09;98589.97;;;22.83;37.79
51239;BME280;38154;47.548;18.828;2023-06-14T16:03:35;98591.66;;;22.84;38.46
51239;BME280;38154;47.548;18.828;2023-06-14T16:06:01;98596.31;;;22.63;38.12
51239;BME280;38154;47.548;18.828;2023-06-14T16:08:27;98595.25;;;22.30;40.35
51239;BME280;38154;47.548;18.828;2023-06-14T16:10:53;98589.81;;;22.14;41.54
51239;BME280;38154;47.548;18.828;2023-06-14T16:13:19;98600.38;;;21.97;41.70
51239;BME280;38154;47.548;18.828;2023-06-14T16:15:45;98594.78;;;21.65;42.38
51239;BME280;38154;47.548;18.828;2023-06-14T16:18:10;98602.69;;;21.47;41.38
51239;BME280;38154;47.548;18.828;2023-06-14T16:20:36;98599.59;;;21.57;42.15
51239;BME280;38154;47.548;18.828;2023-06-14T16:23:02;98595.94;;;21.59;42.95
51239;BME280;38154;47.548;18.828;2023-06-14T16:25:28;98601.97;;;21.63;43.36
51239;BME280;38154;47.548;18.828;2023-06-14T16:27:54;98603.97;;;21.58;42.46
51239;BME280;38154;47.548;18.828;2023-06-14T16:30:20;98605.00;;;21.55;45.07
51239;BME280;38154;47.548;18.828;2023-06-14T16:32:46;98610.38;;;21.54;46.44
51239;BME280;38154;47.548;18.828;2023-06-14T16:35:12;98610.16;;;21.38;45.86
51239;BME280;38154;47.548;18.828;2023-06-14T16:37:38;98607.59;;;21.36;46.74
51239;BME280;38154;47.548;18.828;2023-06-14T16:40:05;98607.38;;;21.22;45.96
51239;BME280;38154;47.548;18.828;2023-06-14T16:42:31;98596.56;;;21.06;45.33
51239;BME280;38154;47.548;18.828;2023-06-14T16:44:58;98600.38;;;21.00;47.00
51239;BME280;38154;47.548;18.828;2023-06-14T16:47:24;98605.00;;;20.95;45.11
51239;BME280;38154;47.548;18.828;2023-06-14T16:49:50;98606.41;;;20.83;46.30
51239;BME280;38154;47.548;18.828;2023-06-14T16:52:16;98614.66;;;20.75;48.48
51239;BME280;38154;47.548;18.828;2023-06-14T16:54:41;98609.06;;;20.61;49.09
51239;BME280;38154;47.548;18.828;2023-06-14T16:57:07;98610.50;;;20.48;48.42
51239;BME280;38154;47.548;18.828;2023-06-14T16:59:33;98609.66;;;20.25;48.17
51239;BME280;38154;47.548;18.828;2023-06-14T17:02:02;98613.25;;;20.02;50.11
51239;BME280;38154;47.548;18.828;2023-06-14T17:04:29;98619.16;;;19.87;53.27
51239;BME280;38154;47.548;18.828;2023-06-14T17:06:56;98616.03;;;19.75;54.48
51239;BME280;38154;47.548;18.828;2023-06-14T17:09:22;98612.53;;;19.75;55.18
51239;BME280;38154;47.548;18.828;2023-06-14T17:11:48;98609.91;;;19.75;56.92
51239;BME280;38154;47.548;18.828;2023-06-14T17:14:14;98612.91;;;19.64;58.14
51239;BME280;38154;47.548;18.828;2023-06-14T17:16:40;98620.34;;;19.54;62.66
51239;BME280;38154;47.548;18.828;2023-06-14T17:19:06;98619.72;;;19.48;62.23
51239;BME280;38154;47.548;18.828;2023-06-14T17:21:32;98623.25;;;19.70;58.57
51239;BME280;38154;47.548;18.828;2023-06-14T17:23:59;98626.66;;;19.50;60.97
51239;BME280;38154;47.548;18.828;2023-06-14T17:26:26;98626.66;;;19.50;60.87
51239;BME280;38154;47.548;18.828;2023-06-14T17:28:54;98633.16;;;19.41;60.81
51239;BME280;38154;47.548;18.828;2023-06-14T17:31:19;98628.97;;;19.36;60.71
51239;BME280;38154;47.548;18.828;2023-06-14T17:33:45;98623.13;;;19.51;60.62
51239;BME280;38154;47.548;18.828;2023-06-14T17:36:11;98626.97;;;19.66;57.13
51239;BME280;38154;47.548;18.828;2023-06-14T17:38:37;98636.19;;;19.79;57.11
51239;BME280;38154;47.548;18.828;2023-06-14T17:41:03;98634.28;;;19.83;58.28
51239;BME280;38154;47.548;18.828;2023-06-14T17:43:37;98633.59;;;19.78;59.87
51239;BME280;38154;47.548;18.828;2023-06-14T17:46:04;98638.34;;;19.68;61.06
51239;BME280;38154;47.548;18.828;2023-06-14T17:48:30;98636.09;;;19.57;63.04
51239;BME280;38154;47.548;18.828;2023-06-14T17:51:00;98635.41;;;19.52;63.60
51239;BME280;38154;47.548;18.828;2023-06-14T17:53:26;98643.53;;;19.48;64.23
51239;BME280;38154;47.548;18.828;2023-06-14T17:55:52;98644.37;;;19.48;64.38
51239;BME280;38154;47.548;18.828;2023-06-14T17:58:17;98650.47;;;19.50;64.95
51239;BME280;38154;47.548;18.828;2023-06-14T18:00:45;98654.97;;;19.48;65.17
51239;BME280;38154;47.548;18.828;2023-06-14T18:03:11;98646.97;;;19.50;61.83
51239;BME280;38154;47.548;18.828;2023-06-14T18:05:37;98658.41;;;19.50;62.13
51239;BME280;38154;47.548;18.828;2023-06-14T18:08:05;98652.47;;;19.43;62.11
51239;BME280;38154;47.548;18.828;2023-06-14T18:10:34;98654.47;;;19.37;62.49
51239;BME280;38154;47.548;18.828;2023-06-14T18:13:01;98658.28;;;19.30;63.08
51239;BME280;38154;47.548;18.828;2023-06-14T18:15:27;98659.37;;;19.24;60.49
51239;BME280;38154;47.548;18.828;2023-06-14T18:17:53;98648.91;;;19.21;60.10
51239;BME280;38154;47.548;18.828;2023-06-14T18:20:21;98653.59;;;19.13;59.85
51239;BME280;38154;47.548;18.828;2023-06-14T18:22:48;98650.34;;;19.04;59.69
51239;BME280;38154;47.548;18.828;2023-06-14T18:25:15;98662.22;;;18.93;60.55
51239;BME280;38154;47.548;18.828;2023-06-14T18:27:46;98653.94;;;18.75;61.22
51239;BME280;38154;47.548;18.828;2023-06-14T18:30:12;98653.63;;;18.59;62.05